Weather at Jagodina / Barutana Airfield

Public forecast

Using degrees Celsius for public forecast. Weather courtesy of forecast.io.

Closest aviation weather report (METAR) to Jagodina / Barutana Airfield

Closest report is Morava Airport, 29.4 nm (54.4 km) WSW. Retrieved 2022/07/04 01:30 UTC (28 minutes ago):

LYKV 040130Z 00000KT CAVOK 20/19 Q1016 NOSIG

Closest aviation forecast (TAF) to Jagodina / Barutana Airfield

Closest forecast is Morava Airport, 29.4 nm (54.4 km) WSW. Retrieved 2022-07-04 00:00 UTC (2 hours ago):

TAF LYKV 032300Z 0400/0424 VRB02KT CAVOK TX35/0414Z TN19/0403Z PROB40 TEMPO 0413/0417 VRB15G25KT 5000 TSRA SCT030CB SCT040